sensor_id;sensor_type;location;lat;lon;timestamp;temperature;humidity
10294;DHT22;5192;50.328;7.610;2023-08-06T00:02:09;15.50;96.20
10294;DHT22;5192;50.328;7.610;2023-08-06T00:04:35;15.40;97.50
10294;DHT22;5192;50.328;7.610;2023-08-06T00:07:02;15.40;98.80
10294;DHT22;5192;50.328;7.610;2023-08-06T00:09:34;15.30;99.20
10294;DHT22;5192;50.328;7.610;2023-08-06T00:11:59;15.30;99.90
10294;DHT22;5192;50.328;7.610;2023-08-06T00:14:26;15.20;99.90
10294;DHT22;5192;50.328;7.610;2023-08-06T00:16:52;15.10;99.90
10294;DHT22;5192;50.328;7.610;2023-08-06T00:19:19;15.20;99.90
10294;DHT22;5192;50.328;7.610;2023-08-06T00:21:46;15.10;99.90
10294;DHT22;5192;50.328;7.610;2023-08-06T00:24:15;15.00;99.90
10294;DHT22;5192;50.328;7.610;2023-08-06T00:26:42;14.90;99.90
10294;DHT22;5192;50.328;7.610;2023-08-06T00:29:08;14.90;99.90
10294;DHT22;5192;50.328;7.610;2023-08-06T00:31:35;14.90;99.90
10294;DHT22;5192;50.328;7.610;2023-08-06T00:34:03;14.90;99.90
10294;DHT22;5192;50.328;7.610;2023-08-06T00:36:30;14.90;99.90
10294;DHT22;5192;50.328;7.610;2023-08-06T00:38:58;15.00;99.90
10294;DHT22;5192;50.328;7.610;2023-08-06T00:41:26;15.00;99.90
10294;DHT22;5192;50.328;7.610;2023-08-06T00:43:51;15.00;99.90
10294;DHT22;5192;50.328;7.610;2023-08-06T00:46:17;15.00;99.90
10294;DHT22;5192;50.328;7.610;2023-08-06T00:48:45;15.00;99.90
10294;DHT22;5192;50.328;7.610;2023-08-06T00:51:19;15.10;99.90
10294;DHT22;5192;50.328;7.610;2023-08-06T00:53:44;15.10;99.90
10294;DHT22;5192;50.328;7.610;2023-08-06T00:56:13;15.20;99.90
10294;DHT22;5192;50.328;7.610;2023-08-06T00:58:42;15.20;99.90
10294;DHT22;5192;50.328;7.610;2023-08-06T01:01:08;15.30;99.90
10294;DHT22;5192;50.328;7.610;2023-08-06T01:03:35;15.20;98.00
10294;DHT22;5192;50.328;7.610;2023-08-06T01:06:03;15.20;97.30
10294;DHT22;5192;50.328;7.610;2023-08-06T01:08:57;15.30;96.20
10294;DHT22;5192;50.328;7.610;2023-08-06T01:11:54;15.20;96.30
10294;DHT22;5192;50.328;7.610;2023-08-06T01:15:00;15.30;97.50
10294;DHT22;5192;50.328;7.610;2023-08-06T01:17:30;15.30;99.10
10294;DHT22;5192;50.328;7.610;2023-08-06T01:19:57;15.30;99.90
10294;DHT22;5192;50.328;7.610;2023-08-06T01:22:24;15.30;99.90
10294;DHT22;5192;50.328;7.610;2023-08-06T01:24:52;15.30;99.90
10294;DHT22;5192;50.328;7.610;2023-08-06T01:27:28;15.20;99.90
10294;DHT22;5192;50.328;7.610;2023-08-06T01:30:33;15.20;99.90
10294;DHT22;5192;50.328;7.610;2023-08-06T01:33:10;15.20;99.90
10294;DHT22;5192;50.328;7.610;2023-08-06T01:35:39;15.10;99.90
10294;DHT22;5192;50.328;7.610;2023-08-06T01:38:07;15.00;99.90
10294;DHT22;5192;50.328;7.610;2023-08-06T01:40:34;15.00;99.90
10294;DHT22;5192;50.328;7.610;2023-08-06T01:43:01;15.00;99.90
10294;DHT22;5192;50.328;7.610;2023-08-06T01:45:29;14.90;99.90
10294;DHT22;5192;50.328;7.610;2023-08-06T01:47:56;14.90;99.90
10294;DHT22;5192;50.328;7.610;2023-08-06T01:50:23;14.80;99.90
10294;DHT22;5192;50.328;7.610;2023-08-06T01:52:49;14.90;99.90
10294;DHT22;5192;50.328;7.610;2023-08-06T01:55:15;14.80;99.90
10294;DHT22;5192;50.328;7.610;2023-08-06T01:57:42;14.80;99.90
10294;DHT22;5192;50.328;7.610;2023-08-06T02:00:09;14.70;99.90
10294;DHT22;5192;50.328;7.610;2023-08-06T02:02:35;14.70;99.90
10294;DHT22;5192;50.328;7.610;2023-08-06T02:05:02;14.60;99.90
10294;DHT22;5192;50.328;7.610;2023-08-06T02:07:29;14.60;99.90
10294;DHT22;5192;50.328;7.610;2023-08-06T02:09:56;14.60;99.90
10294;DHT22;5192;50.328;7.610;2023-08-06T02:12:25;14.60;99.90
10294;DHT22;5192;50.328;7.610;2023-08-06T02:14:52;14.60;99.90
10294;DHT22;5192;50.328;7.610;2023-08-06T02:17:21;14.60;99.90
10294;DHT22;5192;50.328;7.610;2023-08-06T02:19:49;14.60;99.90
10294;DHT22;5192;50.328;7.610;2023-08-06T02:22:15;14.70;99.90
10294;DHT22;5192;50.328;7.610;2023-08-06T02:24:42;14.70;99.90
10294;DHT22;5192;50.328;7.610;2023-08-06T02:27:07;14.70;99.90
10294;DHT22;5192;50.328;7.610;2023-08-06T02:29:36;14.70;99.90
10294;DHT22;5192;50.328;7.610;2023-08-06T02:32:04;14.70;99.90
10294;DHT22;5192;50.328;7.610;2023-08-06T02:34:31;14.70;99.90
10294;DHT22;5192;50.328;7.610;2023-08-06T02:36:58;14.70;99.90
10294;DHT22;5192;50.328;7.610;2023-08-06T02:39:25;14.70;99.90
10294;DHT22;5192;50.328;7.610;2023-08-06T02:41:52;14.70;99.90
10294;DHT22;5192;50.328;7.610;2023-08-06T02:44:19;14.70;99.90
10294;DHT22;5192;50.328;7.610;2023-08-06T02:46:46;14.70;99.90
10294;DHT22;5192;50.328;7.610;2023-08-06T02:49:13;14.70;99.90
10294;DHT22;5192;50.328;7.610;2023-08-06T02:51:41;14.70;99.90
10294;DHT22;5192;50.328;7.610;2023-08-06T02:54:07;14.70;99.90
10294;DHT22;5192;50.328;7.610;2023-08-06T02:56:33;14.70;99.90
10294;DHT22;5192;50.328;7.610;2023-08-06T02:59:00;14.70;99.90
10294;DHT22;5192;50.328;7.610;2023-08-06T03:01:27;14.70;99.90
10294;DHT22;5192;50.328;7.610;2023-08-06T03:03:56;14.80;99.90
10294;DHT22;5192;50.328;7.610;2023-08-06T03:06:26;14.80;98.20
10294;DHT22;5192;50.328;7.610;2023-08-06T03:08:55;14.80;95.40
10294;DHT22;5192;50.328;7.610;2023-08-06T03:11:23;14.90;95.30
10294;DHT22;5192;50.328;7.610;2023-08-06T03:13:49;15.00;98.90
10294;DHT22;5192;50.328;7.610;2023-08-06T03:16:17;15.00;99.90
10294;DHT22;5192;50.328;7.610;2023-08-06T03:18:43;15.00;99.90
10294;DHT22;5192;50.328;7.610;2023-08-06T03:21:13;15.00;99.90
10294;DHT22;5192;50.328;7.610;2023-08-06T03:23:40;15.00;99.90
10294;DHT22;5192;50.328;7.610;2023-08-06T03:26:08;15.00;99.90
10294;DHT22;5192;50.328;7.610;2023-08-06T03:28:35;15.00;99.90
10294;DHT22;5192;50.328;7.610;2023-08-06T03:31:04;15.00;99.90
10294;DHT22;5192;50.328;7.610;2023-08-06T03:33:31;15.10;99.90
10294;DHT22;5192;50.328;7.610;2023-08-06T03:35:59;15.00;99.90
10294;DHT22;5192;50.328;7.610;2023-08-06T03:38:26;15.00;99.90
10294;DHT22;5192;50.328;7.610;2023-08-06T03:40:53;15.00;99.90
10294;DHT22;5192;50.328;7.610;2023-08-06T03:43:20;15.00;99.90
10294;DHT22;5192;50.328;7.610;2023-08-06T03:45:45;15.00;99.90
10294;DHT22;5192;50.328;7.610;2023-08-06T03:48:12;15.00;99.90
10294;DHT22;5192;50.328;7.610;2023-08-06T03:50:41;15.00;99.90
10294;DHT22;5192;50.328;7.610;2023-08-06T03:53:08;15.00;99.90
10294;DHT22;5192;50.328;7.610;2023-08-06T03:55:37;14.90;99.90
10294;DHT22;5192;50.328;7.610;2023-08-06T03:58:05;14.90;99.90
10294;DHT22;5192;50.328;7.610;2023-08-06T04:00:32;14.90;99.90
10294;DHT22;5192;50.328;7.610;2023-08-06T04:02:58;14.90;99.90
10294;DHT22;5192;50.328;7.610;2023-08-06T04:05:25;14.90;99.90
10294;DHT22;5192;50.328;7.610;2023-08-06T04:07:53;14.90;99.90
10294;DHT22;5192;50.328;7.610;2023-08-06T04:10:21;14.80;99.90
10294;DHT22;5192;50.328;7.610;2023-08-06T04:12:49;14.80;99.90
10294;DHT22;5192;50.328;7.610;2023-08-06T04:15:14;14.80;99.90
10294;DHT22;5192;50.328;7.610;2023-08-06T04:17:41;14.80;99.90
10294;DHT22;5192;50.328;7.610;2023-08-06T04:20:09;14.80;99.90
10294;DHT22;5192;50.328;7.610;2023-08-06T04:22:37;14.80;99.90
10294;DHT22;5192;50.328;7.610;2023-08-06T04:25:03;14.70;99.90
10294;DHT22;5192;50.328;7.610;2023-08-06T04:27:31;14.80;99.90
10294;DHT22;5192;50.328;7.610;2023-08-06T04:30:00;14.70;99.90
10294;DHT22;5192;50.328;7.610;2023-08-06T04:32:27;14.80;99.90
10294;DHT22;5192;50.328;7.610;2023-08-06T04:34:55;14.80;99.90
10294;DHT22;5192;50.328;7.610;2023-08-06T04:37:24;14.80;99.90
10294;DHT22;5192;50.328;7.610;2023-08-06T04:39:51;14.90;99.90
10294;DHT22;5192;50.328;7.610;2023-08-06T04:42:18;14.90;99.90
10294;DHT22;5192;50.328;7.610;2023-08-06T04:44:46;14.90;99.90
10294;DHT22;5192;50.328;7.610;2023-08-06T04:47:12;14.90;99.90
10294;DHT22;5192;50.328;7.610;2023-08-06T04:49:38;14.90;99.90
10294;DHT22;5192;50.328;7.610;2023-08-06T04:52:06;15.00;99.90
10294;DHT22;5192;50.328;7.610;2023-08-06T04:54:33;15.00;99.90
10294;DHT22;5192;50.328;7.610;2023-08-06T04:57:01;15.00;99.90
10294;DHT22;5192;50.328;7.610;2023-08-06T04:59:28;15.10;99.90
10294;DHT22;5192;50.328;7.610;2023-08-06T05:01:55;15.00;99.90
10294;DHT22;5192;50.328;7.610;2023-08-06T05:04:22;15.00;99.90
10294;DHT22;5192;50.328;7.610;2023-08-06T05:06:49;15.00;99.90
10294;DHT22;5192;50.328;7.610;2023-08-06T05:09:17;15.10;99.90
10294;DHT22;5192;50.328;7.610;2023-08-06T05:11:44;15.10;99.90
10294;DHT22;5192;50.328;7.610;2023-08-06T05:14:12;15.10;99.90
10294;DHT22;5192;50.328;7.610;2023-08-06T05:16:41;15.20;99.90
10294;DHT22;5192;50.328;7.610;2023-08-06T05:19:10;15.10;99.90
10294;DHT22;5192;50.328;7.610;2023-08-06T05:21:37;15.20;99.90
10294;DHT22;5192;50.328;7.610;2023-08-06T05:24:07;15.30;99.90
10294;DHT22;5192;50.328;7.610;2023-08-06T05:26:35;15.10;99.90
10294;DHT22;5192;50.328;7.610;2023-08-06T05:29:02;15.10;99.90
10294;DHT22;5192;50.328;7.610;2023-08-06T05:31:29;15.10;99.90
10294;DHT22;5192;50.328;7.610;2023-08-06T05:34:01;15.20;99.90
10294;DHT22;5192;50.328;7.610;2023-08-06T05:36:27;15.20;99.90
10294;DHT22;5192;50.328;7.610;2023-08-06T05:38:56;15.10;99.90
10294;DHT22;5192;50.328;7.610;2023-08-06T05:41:22;15.10;99.90
10294;DHT22;5192;50.328;7.610;2023-08-06T05:43:49;15.00;99.90
10294;DHT22;5192;50.328;7.610;2023-08-06T05:46:17;15.00;99.90
10294;DHT22;5192;50.328;7.610;2023-08-06T05:48:43;15.00;99.90
10294;DHT22;5192;50.328;7.610;2023-08-06T05:51:10;15.00;99.90
10294;DHT22;5192;50.328;7.610;2023-08-06T05:53:39;15.00;99.90
10294;DHT22;5192;50.328;7.610;2023-08-06T05:56:06;15.10;99.90
10294;DHT22;5192;50.328;7.610;2023-08-06T05:58:35;15.10;99.90
10294;DHT22;5192;50.328;7.610;2023-08-06T06:01:01;15.00;99.90
10294;DHT22;5192;50.328;7.610;2023-08-06T06:03:28;15.20;99.90
10294;DHT22;5192;50.328;7.610;2023-08-06T06:05:56;15.30;99.90
10294;DHT22;5192;50.328;7.610;2023-08-06T06:08:22;15.30;99.90
10294;DHT22;5192;50.328;7.610;2023-08-06T06:10:49;15.30;99.90
10294;DHT22;5192;50.328;7.610;2023-08-06T06:13:15;15.40;99.90
10294;DHT22;5192;50.328;7.610;2023-08-06T06:15:42;15.50;99.90
10294;DHT22;5192;50.328;7.610;2023-08-06T06:18:09;15.50;97.10
10294;DHT22;5192;50.328;7.610;2023-08-06T06:20:36;15.60;99.90
10294;DHT22;5192;50.328;7.610;2023-08-06T06:23:03;15.60;99.90
10294;DHT22;5192;50.328;7.610;2023-08-06T06:25:30;15.70;99.50
10294;DHT22;5192;50.328;7.610;2023-08-06T06:27:57;15.80;99.90
10294;DHT22;5192;50.328;7.610;2023-08-06T06:30:26;15.90;99.90
10294;DHT22;5192;50.328;7.610;2023-08-06T06:32:53;16.00;99.90
10294;DHT22;5192;50.328;7.610;2023-08-06T06:35:19;16.20;99.90
10294;DHT22;5192;50.328;7.610;2023-08-06T06:37:46;16.00;93.00
10294;DHT22;5192;50.328;7.610;2023-08-06T06:40:13;16.20;98.30
10294;DHT22;5192;50.328;7.610;2023-08-06T06:42:41;16.10;91.50
10294;DHT22;5192;50.328;7.610;2023-08-06T06:45:08;16.10;92.40
10294;DHT22;5192;50.328;7.610;2023-08-06T06:47:41;16.20;95.20
10294;DHT22;5192;50.328;7.610;2023-08-06T06:50:08;16.30;99.90
10294;DHT22;5192;50.328;7.610;2023-08-06T06:52:36;16.10;91.50
10294;DHT22;5192;50.328;7.610;2023-08-06T06:55:02;16.10;93.20
10294;DHT22;5192;50.328;7.610;2023-08-06T06:57:29;16.10;92.60
10294;DHT22;5192;50.328;7.610;2023-08-06T06:59:57;16.20;93.80
10294;DHT22;5192;50.328;7.610;2023-08-06T07:02:24;16.20;91.80
10294;DHT22;5192;50.328;7.610;2023-08-06T07:04:51;16.30;91.20
10294;DHT22;5192;50.328;7.610;2023-08-06T07:07:18;16.20;84.10
10294;DHT22;5192;50.328;7.610;2023-08-06T07:09:44;16.30;92.20
10294;DHT22;5192;50.328;7.610;2023-08-06T07:12:14;16.30;92.00
10294;DHT22;5192;50.328;7.610;2023-08-06T07:14:39;16.30;94.40
10294;DHT22;5192;50.328;7.610;2023-08-06T07:17:06;16.30;92.10
10294;DHT22;5192;50.328;7.610;2023-08-06T07:19:33;16.20;89.90
10294;DHT22;5192;50.328;7.610;2023-08-06T07:22:06;16.20;87.60
10294;DHT22;5192;50.328;7.610;2023-08-06T07:24:35;16.10;88.40
10294;DHT22;5192;50.328;7.610;2023-08-06T07:27:02;16.20;93.40
10294;DHT22;5192;50.328;7.610;2023-08-06T07:29:30;16.10;87.40
10294;DHT22;5192;50.328;7.610;2023-08-06T07:31:57;16.10;90.10
10294;DHT22;5192;50.328;7.610;2023-08-06T07:34:24;16.10;89.30
10294;DHT22;5192;50.328;7.610;2023-08-06T07:36:52;16.10;90.20
10294;DHT22;5192;50.328;7.610;2023-08-06T07:39:19;16.30;91.60
10294;DHT22;5192;50.328;7.610;2023-08-06T07:41:47;16.50;95.00
10294;DHT22;5192;50.328;7.610;2023-08-06T07:44:14;16.50;86.80
10294;DHT22;5192;50.328;7.610;2023-08-06T07:46:42;16.70;82.60
10294;DHT22;5192;50.328;7.610;2023-08-06T07:49:11;16.90;84.50
10294;DHT22;5192;50.328;7.610;2023-08-06T07:51:38;17.10;83.90
10294;DHT22;5192;50.328;7.610;2023-08-06T07:54:06;17.30;77.80
10294;DHT22;5192;50.328;7.610;2023-08-06T07:56:33;17.30;65.50
10294;DHT22;5192;50.328;7.610;2023-08-06T07:59:02;17.30;63.20
10294;DHT22;5192;50.328;7.610;2023-08-06T08:01:29;17.30;60.10
10294;DHT22;5192;50.328;7.610;2023-08-06T08:03:57;17.50;55.00
10294;DHT22;5192;50.328;7.610;2023-08-06T08:06:25;17.50;58.20
10294;DHT22;5192;50.328;7.610;2023-08-06T08:08:53;17.60;60.10
10294;DHT22;5192;50.328;7.610;2023-08-06T08:11:20;17.50;58.20
10294;DHT22;5192;50.328;7.610;2023-08-06T08:13:47;17.40;52.70
10294;DHT22;5192;50.328;7.610;2023-08-06T08:16:13;17.40;61.50
10294;DHT22;5192;50.328;7.610;2023-08-06T08:18:42;17.40;61.50
10294;DHT22;5192;50.328;7.610;2023-08-06T08:21:08;17.30;53.20
10294;DHT22;5192;50.328;7.610;2023-08-06T08:23:36;17.30;58.60
10294;DHT22;5192;50.328;7.610;2023-08-06T08:26:05;17.40;63.20
10294;DHT22;5192;50.328;7.610;2023-08-06T08:28:32;17.40;58.20
10294;DHT22;5192;50.328;7.610;2023-08-06T08:30:59;17.10;59.80
10294;DHT22;5192;50.328;7.610;2023-08-06T08:33:30;17.00;61.00
10294;DHT22;5192;50.328;7.610;2023-08-06T08:35:58;17.20;61.60
10294;DHT22;5192;50.328;7.610;2023-08-06T08:38:26;17.10;60.10
10294;DHT22;5192;50.328;7.610;2023-08-06T08:40:54;17.20;61.10
10294;DHT22;5192;50.328;7.610;2023-08-06T08:43:25;17.40;69.30
10294;DHT22;5192;50.328;7.610;2023-08-06T08:45:54;17.30;55.80
10294;DHT22;5192;50.328;7.610;2023-08-06T08:48:28;17.30;52.00
10294;DHT22;5192;50.328;7.610;2023-08-06T08:50:56;17.30;53.40
10294;DHT22;5192;50.328;7.610;2023-08-06T08:53:23;17.30;58.40
10294;DHT22;5192;50.328;7.610;2023-08-06T08:55:53;17.30;53.60
10294;DHT22;5192;50.328;7.610;2023-08-06T08:58:18;17.30;52.30
10294;DHT22;5192;50.328;7.610;2023-08-06T09:00:46;17.40;49.50
10294;DHT22;5192;50.328;7.610;2023-08-06T09:03:16;17.50;51.20
10294;DHT22;5192;50.328;7.610;2023-08-06T09:05:45;17.70;52.90
10294;DHT22;5192;50.328;7.610;2023-08-06T09:08:18;17.90;50.60
10294;DHT22;5192;50.328;7.610;2023-08-06T09:10:48;18.20;42.20
10294;DHT22;5192;50.328;7.610;2023-08-06T09:13:16;18.40;45.80
10294;DHT22;5192;50.328;7.610;2023-08-06T09:15:44;18.60;46.70
10294;DHT22;5192;50.328;7.610;2023-08-06T09:18:12;18.70;43.50
10294;DHT22;5192;50.328;7.610;2023-08-06T09:20:41;18.60;26.00
10294;DHT22;5192;50.328;7.610;2023-08-06T09:23:11;18.70;28.80
10294;DHT22;5192;50.328;7.610;2023-08-06T09:25:41;18.90;31.20
10294;DHT22;5192;50.328;7.610;2023-08-06T09:28:07;19.10;31.20
10294;DHT22;5192;50.328;7.610;2023-08-06T09:30:52;19.00;33.80
10294;DHT22;5192;50.328;7.610;2023-08-06T09:33:24;19.10;29.80
10294;DHT22;5192;50.328;7.610;2023-08-06T09:35:51;19.00;42.60
10294;DHT22;5192;50.328;7.610;2023-08-06T09:38:17;18.80;41.10
10294;DHT22;5192;50.328;7.610;2023-08-06T09:40:46;18.40;73.40
10294;DHT22;5192;50.328;7.610;2023-08-06T09:43:13;17.90;75.40
10294;DHT22;5192;50.328;7.610;2023-08-06T09:45:41;17.40;93.80
10294;DHT22;5192;50.328;7.610;2023-08-06T09:48:08;17.10;99.90
10294;DHT22;5192;50.328;7.610;2023-08-06T09:50:37;16.90;99.90
10294;DHT22;5192;50.328;7.610;2023-08-06T09:53:06;16.80;99.90
10294;DHT22;5192;50.328;7.610;2023-08-06T09:55:34;16.70;99.90
10294;DHT22;5192;50.328;7.610;2023-08-06T09:58:01;16.70;99.90
10294;DHT22;5192;50.328;7.610;2023-08-06T10:00:29;16.70;99.90
10294;DHT22;5192;50.328;7.610;2023-08-06T10:03:01;16.80;99.90
10294;DHT22;5192;50.328;7.610;2023-08-06T10:05:33;17.10;99.90
10294;DHT22;5192;50.328;7.610;2023-08-06T10:08:02;17.10;99.90
10294;DHT22;5192;50.328;7.610;2023-08-06T10:10:29;17.00;99.90
10294;DHT22;5192;50.328;7.610;2023-08-06T10:12:57;16.70;99.90
10294;DHT22;5192;50.328;7.610;2023-08-06T10:15:31;16.30;99.90
10294;DHT22;5192;50.328;7.610;2023-08-06T10:17:58;16.00;99.90
10294;DHT22;5192;50.328;7.610;2023-08-06T10:20:26;15.80;99.90
10294;DHT22;5192;50.328;7.610;2023-08-06T10:25:55;15.70;99.90
10294;DHT22;5192;50.328;7.610;2023-08-06T10:28:38;15.50;99.90
10294;DHT22;5192;50.328;7.610;2023-08-06T10:31:05;15.40;99.90
10294;DHT22;5192;50.328;7.610;2023-08-06T10:33:46;15.30;99.90
10294;DHT22;5192;50.328;7.610;2023-08-06T10:36:14;15.20;99.90
10294;DHT22;5192;50.328;7.610;2023-08-06T10:38:48;15.20;99.90
10294;DHT22;5192;50.328;7.610;2023-08-06T10:41:23;15.10;99.90
10294;DHT22;5192;50.328;7.610;2023-08-06T10:44:06;15.20;99.90
10294;DHT22;5192;50.328;7.610;2023-08-06T10:46:37;15.20;99.90
10294;DHT22;5192;50.328;7.610;2023-08-06T10:49:04;15.10;99.90
10294;DHT22;5192;50.328;7.610;2023-08-06T10:51:35;15.10;99.90
10294;DHT22;5192;50.328;7.610;2023-08-06T10:54:05;15.10;99.90
10294;DHT22;5192;50.328;7.610;2023-08-06T10:56:31;15.00;99.90
10294;DHT22;5192;50.328;7.610;2023-08-06T10:59:09;14.90;99.90
10294;DHT22;5192;50.328;7.610;2023-08-06T11:01:39;15.00;99.90
10294;DHT22;5192;50.328;7.610;2023-08-06T11:04:07;14.90;99.90
10294;DHT22;5192;50.328;7.610;2023-08-06T11:06:35;14.80;99.90
10294;DHT22;5192;50.328;7.610;2023-08-06T11:09:03;14.80;99.90
10294;DHT22;5192;50.328;7.610;2023-08-06T11:11:34;14.80;99.90
10294;DHT22;5192;50.328;7.610;2023-08-06T11:14:02;14.70;99.90
10294;DHT22;5192;50.328;7.610;2023-08-06T11:16:29;14.70;99.90
10294;DHT22;5192;50.328;7.610;2023-08-06T11:18:56;14.70;98.50
10294;DHT22;5192;50.328;7.610;2023-08-06T11:21:26;14.70;92.40
10294;DHT22;5192;50.328;7.610;2023-08-06T11:23:53;14.70;98.00
10294;DHT22;5192;50.328;7.610;2023-08-06T11:26:21;14.70;98.50
10294;DHT22;5192;50.328;7.610;2023-08-06T11:28:48;14.70;99.90
10294;DHT22;5192;50.328;7.610;2023-08-06T11:31:23;14.80;94.00
10294;DHT22;5192;50.328;7.610;2023-08-06T11:33:54;14.70;99.90
10294;DHT22;5192;50.328;7.610;2023-08-06T11:36:40;14.70;99.90
10294;DHT22;5192;50.328;7.610;2023-08-06T11:39:07;14.70;81.60
10294;DHT22;5192;50.328;7.610;2023-08-06T11:41:36;14.70;81.50
10294;DHT22;5192;50.328;7.610;2023-08-06T11:44:05;14.70;83.90
10294;DHT22;5192;50.328;7.610;2023-08-06T11:46:52;14.80;84.20
10294;DHT22;5192;50.328;7.610;2023-08-06T11:49:52;14.60;89.30
10294;DHT22;5192;50.328;7.610;2023-08-06T11:52:38;14.80;90.60
10294;DHT22;5192;50.328;7.610;2023-08-06T11:55:07;14.70;86.20
10294;DHT22;5192;50.328;7.610;2023-08-06T11:57:43;14.70;82.10
10294;DHT22;5192;50.328;7.610;2023-08-06T12:00:29;14.70;84.40
10294;DHT22;5192;50.328;7.610;2023-08-06T12:02:57;14.70;95.70
10294;DHT22;5192;50.328;7.610;2023-08-06T12:05:28;14.70;87.50
10294;DHT22;5192;50.328;7.610;2023-08-06T12:08:02;14.70;89.40
10294;DHT22;5192;50.328;7.610;2023-08-06T12:10:35;14.70;91.00
10294;DHT22;5192;50.328;7.610;2023-08-06T12:13:03;14.70;99.90
10294;DHT22;5192;50.328;7.610;2023-08-06T12:15:31;14.60;99.10
10294;DHT22;5192;50.328;7.610;2023-08-06T12:17:57;14.70;98.40
10294;DHT22;5192;50.328;7.610;2023-08-06T12:20:26;14.70;94.10
10294;DHT22;5192;50.328;7.610;2023-08-06T12:22:56;14.60;96.70
10294;DHT22;5192;50.328;7.610;2023-08-06T12:25:22;14.70;99.90
10294;DHT22;5192;50.328;7.610;2023-08-06T12:27:50;14.70;93.90
10294;DHT22;5192;50.328;7.610;2023-08-06T12:30:17;14.70;98.30
10294;DHT22;5192;50.328;7.610;2023-08-06T12:32:44;14.70;99.30
10294;DHT22;5192;50.328;7.610;2023-08-06T12:35:10;14.70;94.30
10294;DHT22;5192;50.328;7.610;2023-08-06T12:37:37;14.70;89.40
10294;DHT22;5192;50.328;7.610;2023-08-06T12:40:10;14.70;88.50
10294;DHT22;5192;50.328;7.610;2023-08-06T12:42:38;14.60;88.90
10294;DHT22;5192;50.328;7.610;2023-08-06T12:45:04;14.70;99.00
10294;DHT22;5192;50.328;7.610;2023-08-06T12:47:30;14.60;88.70
10294;DHT22;5192;50.328;7.610;2023-08-06T12:49:57;14.80;99.90
10294;DHT22;5192;50.328;7.610;2023-08-06T12:52:23;14.90;99.90
10294;DHT22;5192;50.328;7.610;2023-08-06T12:54:50;14.90;97.30
10294;DHT22;5192;50.328;7.610;2023-08-06T12:57:17;15.00;99.90
10294;DHT22;5192;50.328;7.610;2023-08-06T12:59:46;15.10;99.90
10294;DHT22;5192;50.328;7.610;2023-08-06T13:02:16;15.20;99.90
10294;DHT22;5192;50.328;7.610;2023-08-06T13:04:42;15.20;99.90
10294;DHT22;5192;50.328;7.610;2023-08-06T13:07:11;15.20;99.90
10294;DHT22;5192;50.328;7.610;2023-08-06T13:09:39;15.10;99.90
10294;DHT22;5192;50.328;7.610;2023-08-06T13:12:07;15.00;99.90
10294;DHT22;5192;50.328;7.610;2023-08-06T13:14:35;15.10;99.90
10294;DHT22;5192;50.328;7.610;2023-08-06T13:17:03;15.00;99.90
10294;DHT22;5192;50.328;7.610;2023-08-06T13:19:37;15.10;99.90
10294;DHT22;5192;50.328;7.610;2023-08-06T13:22:04;15.10;99.90
10294;DHT22;5192;50.328;7.610;2023-08-06T13:24:33;15.20;99.90
10294;DHT22;5192;50.328;7.610;2023-08-06T13:27:00;15.10;99.90
10294;DHT22;5192;50.328;7.610;2023-08-06T13:29:27;15.20;99.90
10294;DHT22;5192;50.328;7.610;2023-08-06T13:31:54;15.30;99.90
10294;DHT22;5192;50.328;7.610;2023-08-06T13:34:21;15.30;99.90
10294;DHT22;5192;50.328;7.610;2023-08-06T13:36:48;15.40;99.90
10294;DHT22;5192;50.328;7.610;2023-08-06T13:39:16;15.50;99.90
10294;DHT22;5192;50.328;7.610;2023-08-06T13:41:46;15.40;99.90
10294;DHT22;5192;50.328;7.610;2023-08-06T13:44:14;15.40;99.90
10294;DHT22;5192;50.328;7.610;2023-08-06T13:46:42;15.30;99.90
10294;DHT22;5192;50.328;7.610;2023-08-06T13:49:09;15.20;99.90
10294;DHT22;5192;50.328;7.610;2023-08-06T13:51:36;15.10;99.90
10294;DHT22;5192;50.328;7.610;2023-08-06T13:54:06;15.10;99.90
10294;DHT22;5192;50.328;7.610;2023-08-06T13:56:33;15.10;99.90
10294;DHT22;5192;50.328;7.610;2023-08-06T13:59:00;15.10;99.90
10294;DHT22;5192;50.328;7.610;2023-08-06T14:01:27;15.00;99.90
10294;DHT22;5192;50.328;7.610;2023-08-06T14:03:55;14.90;99.90
10294;DHT22;5192;50.328;7.610;2023-08-06T14:06:23;14.80;99.90
10294;DHT22;5192;50.328;7.610;2023-08-06T14:08:50;14.70;99.90
10294;DHT22;5192;50.328;7.610;2023-08-06T14:11:18;14.60;99.90
10294;DHT22;5192;50.328;7.610;2023-08-06T14:13:45;14.50;99.90
10294;DHT22;5192;50.328;7.610;2023-08-06T14:16:12;14.40;99.90
10294;DHT22;5192;50.328;7.610;2023-08-06T14:18:39;14.40;99.90
10294;DHT22;5192;50.328;7.610;2023-08-06T14:21:08;14.40;99.90
10294;DHT22;5192;50.328;7.610;2023-08-06T14:23:36;14.50;99.90
10294;DHT22;5192;50.328;7.610;2023-08-06T14:26:06;14.60;99.90
10294;DHT22;5192;50.328;7.610;2023-08-06T14:28:33;14.60;99.90
10294;DHT22;5192;50.328;7.610;2023-08-06T14:31:01;14.60;99.90
10294;DHT22;5192;50.328;7.610;2023-08-06T14:33:29;14.70;99.90
10294;DHT22;5192;50.328;7.610;2023-08-06T14:35:57;14.70;99.90
10294;DHT22;5192;50.328;7.610;2023-08-06T14:38:24;14.70;99.90
10294;DHT22;5192;50.328;7.610;2023-08-06T14:40:52;14.60;99.90
10294;DHT22;5192;50.328;7.610;2023-08-06T14:43:20;14.60;99.90
10294;DHT22;5192;50.328;7.610;2023-08-06T14:45:47;14.50;99.90
10294;DHT22;5192;50.328;7.610;2023-08-06T14:48:14;14.50;99.90
10294;DHT22;5192;50.328;7.610;2023-08-06T14:50:42;14.60;99.90
10294;DHT22;5192;50.328;7.610;2023-08-06T14:53:12;14.60;99.90
10294;DHT22;5192;50.328;7.610;2023-08-06T14:55:43;14.50;99.90
10294;DHT22;5192;50.328;7.610;2023-08-06T14:58:09;14.50;99.90
10294;DHT22;5192;50.328;7.610;2023-08-06T15:00:35;14.50;99.90
10294;DHT22;5192;50.328;7.610;2023-08-06T15:03:04;14.50;99.90
10294;DHT22;5192;50.328;7.610;2023-08-06T15:05:31;14.50;99.90
10294;DHT22;5192;50.328;7.610;2023-08-06T15:07:57;14.50;99.90
10294;DHT22;5192;50.328;7.610;2023-08-06T15:10:24;14.60;99.90
10294;DHT22;5192;50.328;7.610;2023-08-06T15:12:54;14.60;99.90
10294;DHT22;5192;50.328;7.610;2023-08-06T15:15:23;14.70;99.90
10294;DHT22;5192;50.328;7.610;2023-08-06T15:17:52;14.70;99.90
10294;DHT22;5192;50.328;7.610;2023-08-06T15:20:17;14.80;99.90
10294;DHT22;5192;50.328;7.610;2023-08-06T15:22:45;14.70;99.90
10294;DHT22;5192;50.328;7.610;2023-08-06T15:25:12;14.60;99.90
10294;DHT22;5192;50.328;7.610;2023-08-06T15:27:41;14.70;99.90
10294;DHT22;5192;50.328;7.610;2023-08-06T15:30:07;14.60;99.90
10294;DHT22;5192;50.328;7.610;2023-08-06T15:32:33;14.50;99.90
10294;DHT22;5192;50.328;7.610;2023-08-06T15:35:00;14.60;99.90
10294;DHT22;5192;50.328;7.610;2023-08-06T15:37:27;14.50;99.90
10294;DHT22;5192;50.328;7.610;2023-08-06T15:39:55;14.50;99.90
10294;DHT22;5192;50.328;7.610;2023-08-06T15:42:23;14.50;99.90
10294;DHT22;5192;50.328;7.610;2023-08-06T15:44:50;14.50;99.90
10294;DHT22;5192;50.328;7.610;2023-08-06T15:47:17;14.50;99.90
10294;DHT22;5192;50.328;7.610;2023-08-06T15:49:42;14.50;99.90
10294;DHT22;5192;50.328;7.610;2023-08-06T15:52:08;14.50;99.90
10294;DHT22;5192;50.328;7.610;2023-08-06T15:54:36;14.50;99.90
10294;DHT22;5192;50.328;7.610;2023-08-06T15:57:02;14.50;99.90